createdAt,value
2022-11-28T00:00:19.046Z,86.57
2022-11-28T00:01:19.037Z,86.62
2022-11-28T00:02:19.197Z,86.82
2022-11-28T00:03:19.131Z,86.88
2022-11-28T00:04:18.992Z,86.95
2022-11-28T00:05:18.982Z,86.84
2022-11-28T00:06:18.975Z,86.87
2022-11-28T00:07:19.026Z,86.97
2022-11-28T00:08:18.960Z,86.93
2022-11-28T00:09:18.933Z,86.81
2022-11-28T00:10:18.914Z,86.75
2022-11-28T00:11:18.903Z,86.65
2022-11-28T00:12:18.888Z,86.54
2022-11-28T00:13:18.880Z,86.42
2022-11-28T00:14:18.883Z,86.41
2022-11-28T00:15:18.853Z,86.12
2022-11-28T00:16:18.877Z,86.02
2022-11-28T00:17:19.830Z,85.93
2022-11-28T00:18:18.803Z,85.96
2022-11-28T00:19:18.792Z,86.10
2022-11-28T00:20:18.793Z,86.35
2022-11-28T00:21:18.782Z,86.32
2022-11-28T00:22:18.743Z,86.30
2022-11-28T00:23:18.743Z,86.56
2022-11-28T00:24:18.724Z,86.65
2022-11-28T00:25:18.721Z,86.77
2022-11-28T00:26:18.733Z,86.60
2022-11-28T00:27:18.692Z,86.56
2022-11-28T00:28:18.675Z,86.35
2022-11-28T00:29:18.662Z,86.29
2022-11-28T00:30:18.644Z,86.64
2022-11-28T00:31:18.696Z,86.70
2022-11-28T00:32:18.635Z,86.59
2022-11-28T00:33:18.610Z,86.60
2022-11-28T00:34:18.592Z,86.46
2022-11-28T00:35:18.584Z,86.25
2022-11-28T00:36:18.572Z,86.09
2022-11-28T00:37:18.552Z,85.90
2022-11-28T00:38:18.562Z,85.77
2022-11-28T00:39:18.533Z,85.80
2022-11-28T00:40:18.511Z,85.91
2022-11-28T00:41:18.513Z,86.22
2022-11-28T00:42:18.499Z,86.43
2022-11-28T00:43:18.492Z,86.69
2022-11-28T00:44:18.500Z,86.78
2022-11-28T00:45:18.450Z,86.64
2022-11-28T00:46:18.440Z,86.22
2022-11-28T00:47:18.423Z,85.86
2022-11-28T00:48:18.415Z,85.88
2022-11-28T00:49:18.391Z,85.98
2022-11-28T00:50:18.391Z,86.12
2022-11-28T00:51:18.375Z,86.02
2022-11-28T00:52:18.351Z,85.74
2022-11-28T00:53:18.340Z,85.86
2022-11-28T00:54:18.318Z,85.99
2022-11-28T00:55:18.320Z,86.07
2022-11-28T00:56:18.320Z,86.07
2022-11-28T00:57:18.291Z,86.22
2022-11-28T00:58:18.267Z,86.52
2022-11-28T00:59:18.259Z,86.61
2022-11-28T01:00:18.240Z,86.46
2022-11-28T01:01:18.338Z,86.72
2022-11-28T01:02:18.323Z,86.61
2022-11-28T01:03:18.209Z,86.51
2022-11-28T01:04:18.208Z,86.34
2022-11-28T01:05:18.180Z,86.38
2022-11-28T01:06:18.168Z,86.35
2022-11-28T01:07:18.237Z,86.41
2022-11-28T01:08:18.158Z,86.55
2022-11-28T01:09:18.132Z,86.40
2022-11-28T01:10:18.114Z,86.50
2022-11-28T01:11:18.105Z,86.62
2022-11-28T01:12:18.088Z,86.75
2022-11-28T01:13:18.078Z,86.77
2022-11-28T01:14:18.099Z,86.65
2022-11-28T01:15:18.048Z,86.66
2022-11-28T01:16:18.132Z,86.76
2022-11-28T01:17:18.028Z,86.66
2022-11-28T01:18:18.010Z,86.53
2022-11-28T01:19:17.998Z,86.42
2022-11-28T01:20:17.994Z,86.31
2022-11-28T01:21:17.967Z,86.21
2022-11-28T01:22:17.948Z,86.13
2022-11-28T01:23:17.947Z,86.05
2022-11-28T01:24:17.927Z,86.17
2022-11-28T01:25:17.917Z,86.01
2022-11-28T01:26:17.929Z,86.11
2022-11-28T01:27:17.897Z,86.10
2022-11-28T01:28:17.873Z,86.05
2022-11-28T01:29:17.867Z,86.11
2022-11-28T01:30:17.845Z,86.14
2022-11-28T01:31:17.916Z,86.29
2022-11-28T01:32:17.845Z,86.38
2022-11-28T01:33:17.809Z,86.74
2022-11-28T01:34:17.800Z,86.83
2022-11-28T01:35:17.778Z,86.80
2022-11-28T01:36:17.767Z,86.80
2022-11-28T01:37:17.757Z,86.65
2022-11-28T01:38:17.755Z,86.36
2022-11-28T01:39:17.727Z,86.26
2022-11-28T01:40:17.718Z,86.12
2022-11-28T01:41:17.705Z,86.00
2022-11-28T01:42:17.685Z,85.99
2022-11-28T01:43:17.676Z,86.04
2022-11-28T01:44:17.675Z,86.22
2022-11-28T01:45:17.656Z,86.29
2022-11-28T01:46:17.658Z,86.23
2022-11-28T01:47:17.624Z,86.23
2022-11-28T01:48:17.607Z,86.46
2022-11-28T01:49:17.594Z,86.62
2022-11-28T01:50:17.594Z,86.72
2022-11-28T01:51:17.572Z,86.54
2022-11-28T01:52:17.549Z,86.66
2022-11-28T01:53:17.544Z,86.64
2022-11-28T01:54:17.522Z,86.77
2022-11-28T01:55:17.514Z,86.92
2022-11-28T01:56:17.512Z,86.84
2022-11-28T01:57:17.494Z,86.39
2022-11-28T01:58:17.472Z,86.16
2022-11-28T01:59:17.463Z,86.17
2022-11-28T02:00:17.453Z,86.45
2022-11-28T02:01:17.537Z,86.52
2022-11-28T02:02:17.456Z,86.69
2022-11-28T02:03:17.411Z,86.98
2022-11-28T02:04:17.393Z,87.25
2022-11-28T02:05:17.384Z,87.22
2022-11-28T02:06:17.365Z,87.24
2022-11-28T02:07:17.406Z,87.26
2022-11-28T02:08:17.363Z,87.11
2022-11-28T02:09:17.329Z,87.14
2022-11-28T02:10:17.314Z,87.14
2022-11-28T02:11:17.303Z,87.06
2022-11-28T02:12:17.285Z,86.86
2022-11-28T02:13:17.271Z,86.74
2022-11-28T02:14:17.297Z,86.64
2022-11-28T02:15:17.251Z,86.72
2022-11-28T02:16:17.324Z,86.86
2022-11-28T02:17:17.223Z,86.86
2022-11-28T02:18:17.362Z,86.86
2022-11-28T02:19:17.199Z,86.64
2022-11-28T02:20:17.201Z,86.65
2022-11-28T02:21:17.175Z,86.62
2022-11-28T02:22:17.151Z,86.73
2022-11-28T02:23:17.142Z,86.96
2022-11-28T02:24:17.121Z,87.01
2022-11-28T02:25:17.119Z,86.63
2022-11-28T02:26:17.123Z,86.51
2022-11-28T02:27:17.098Z,86.37
2022-11-28T02:28:17.081Z,86.34
2022-11-28T02:29:17.063Z,86.53
2022-11-28T02:30:17.049Z,86.75
2022-11-28T02:31:17.120Z,86.91
2022-11-28T02:32:17.042Z,86.98
2022-11-28T02:33:17.011Z,87.21
2022-11-28T02:34:16.990Z,87.02
2022-11-28T02:35:16.989Z,86.86
2022-11-28T02:36:16.962Z,86.89
2022-11-28T02:37:16.959Z,86.85
2022-11-28T02:38:16.975Z,86.92
2022-11-28T02:39:16.931Z,86.99
2022-11-28T02:40:16.919Z,87.10
2022-11-28T02:41:16.901Z,87.19
2022-11-28T02:42:16.879Z,87.08
2022-11-28T02:43:16.881Z,87.12
2022-11-28T02:44:16.882Z,86.95
2022-11-28T02:45:16.849Z,86.88
2022-11-28T02:46:16.849Z,86.87
2022-11-28T02:47:16.836Z,86.83
2022-11-28T02:48:16.809Z,86.69
2022-11-28T02:49:16.788Z,86.49
2022-11-28T02:50:16.801Z,86.50
2022-11-28T02:51:16.769Z,86.23
2022-11-28T02:52:16.747Z,85.80
2022-11-28T02:53:16.758Z,85.87
2022-11-28T02:54:16.734Z,86.10
2022-11-28T02:55:16.720Z,86.04
2022-11-28T02:56:16.718Z,85.92
2022-11-28T02:57:16.687Z,85.94
2022-11-28T02:58:16.676Z,86.01
2022-11-28T02:59:16.665Z,85.93
2022-11-28T03:00:17.936Z,85.58
2022-11-28T03:01:17.685Z,85.47
2022-11-28T03:02:16.699Z,85.42
2022-11-28T03:03:16.618Z,85.57
2022-11-28T03:04:16.588Z,85.55
2022-11-28T03:05:16.578Z,85.79
2022-11-28T03:06:16.569Z,86.03
2022-11-28T03:07:16.627Z,86.07
2022-11-28T03:08:16.558Z,86.12
2022-11-28T03:09:16.539Z,86.12
2022-11-28T03:10:16.520Z,86.04
2022-11-28T03:11:16.508Z,86.10
2022-11-28T03:12:16.485Z,86.08
2022-11-28T03:13:16.486Z,86.09
2022-11-28T03:14:16.479Z,86.14
2022-11-28T03:15:17.455Z,86.21
2022-11-28T03:16:16.522Z,86.20
2022-11-28T03:17:16.424Z,86.11
2022-11-28T03:18:16.415Z,85.97
2022-11-28T03:19:16.400Z,86.01
2022-11-28T03:20:16.396Z,86.01
2022-11-28T03:21:16.375Z,86.07
2022-11-28T03:22:16.356Z,86.00
2022-11-28T03:23:16.345Z,85.92
2022-11-28T03:24:16.329Z,86.03
2022-11-28T03:25:16.326Z,85.84
2022-11-28T03:26:16.336Z,85.70
2022-11-28T03:27:16.296Z,85.27
2022-11-28T03:28:16.275Z,85.12
2022-11-28T03:29:16.266Z,85.11
2022-11-28T03:30:16.244Z,85.17
2022-11-28T03:31:16.324Z,85.04
2022-11-28T03:32:16.236Z,85.16
2022-11-28T03:33:16.214Z,85.02
2022-11-28T03:34:16.199Z,85.08
2022-11-28T03:35:16.188Z,85.07
2022-11-28T03:36:16.165Z,85.19
2022-11-28T03:37:16.164Z,85.28
2022-11-28T03:38:16.163Z,85.31
2022-11-28T03:39:16.127Z,85.43
2022-11-28T03:40:16.116Z,85.49
2022-11-28T03:41:16.105Z,85.37
2022-11-28T03:42:16.098Z,85.50
2022-11-28T03:43:16.097Z,85.47
2022-11-28T03:44:16.102Z,85.57
2022-11-28T03:45:16.058Z,85.77
2022-11-28T03:46:16.045Z,85.89
2022-11-28T03:47:16.023Z,85.98
2022-11-28T03:48:16.003Z,86.09
2022-11-28T03:49:16.002Z,86.26
2022-11-28T03:50:16.002Z,86.16
2022-11-28T03:51:15.975Z,86.05
2022-11-28T03:52:15.955Z,85.88
2022-11-28T03:53:15.945Z,85.78
2022-11-28T03:54:15.923Z,85.74
2022-11-28T03:55:16.099Z,85.65
2022-11-28T03:56:15.982Z,85.49
2022-11-28T03:57:15.891Z,85.42
2022-11-28T03:58:15.896Z,85.46
2022-11-28T03:59:15.873Z,85.33
2022-11-28T04:00:15.850Z,85.24
2022-11-28T04:01:15.845Z,85.35
2022-11-28T04:02:15.841Z,85.55
2022-11-28T04:03:15.873Z,85.60
2022-11-28T04:04:15.794Z,85.65
2022-11-28T04:05:15.782Z,85.69
2022-11-28T04:06:15.773Z,85.87
2022-11-28T04:07:15.809Z,85.77
2022-11-28T04:08:15.760Z,85.80
2022-11-28T04:09:15.732Z,85.69
2022-11-28T04:10:15.721Z,85.29
2022-11-28T04:11:15.703Z,85.27
2022-11-28T04:12:15.682Z,85.41
2022-11-28T04:13:15.681Z,85.18
2022-11-28T04:14:15.681Z,85.06
2022-11-28T04:15:15.651Z,85.07
2022-11-28T04:16:15.652Z,85.10
2022-11-28T04:17:15.623Z,85.08
2022-11-28T04:18:15.611Z,84.80
2022-11-28T04:19:15.600Z,84.88
2022-11-28T04:20:15.610Z,84.84
2022-11-28T04:21:15.570Z,84.68
2022-11-28T04:22:15.561Z,84.48
2022-11-28T04:23:15.547Z,84.21
2022-11-28T04:24:15.524Z,84.25
2022-11-28T04:25:15.521Z,84.56
2022-11-28T04:26:15.511Z,84.62
2022-11-28T04:27:15.490Z,84.67
2022-11-28T04:28:15.478Z,84.81
2022-11-28T04:29:15.468Z,84.90
2022-11-28T04:30:15.460Z,84.85
2022-11-28T04:31:15.500Z,84.84
2022-11-28T04:32:15.449Z,84.89
2022-11-28T04:33:15.419Z,85.12
2022-11-28T04:34:15.389Z,85.01
2022-11-28T04:35:15.389Z,84.88
2022-11-28T04:36:15.361Z,84.74
2022-11-28T04:37:15.359Z,84.27
2022-11-28T04:38:15.369Z,84.04
2022-11-28T04:39:15.339Z,83.88
2022-11-28T04:40:15.309Z,83.77
2022-11-28T04:41:15.309Z,83.58
2022-11-28T04:42:15.288Z,83.47
2022-11-28T04:43:15.280Z,83.77
2022-11-28T04:44:15.285Z,83.96
2022-11-28T04:45:15.257Z,84.04
2022-11-28T04:46:15.308Z,83.95
2022-11-28T04:47:15.228Z,83.75
2022-11-28T04:48:15.210Z,83.72
2022-11-28T04:49:15.200Z,84.05
2022-11-28T04:50:15.229Z,84.40
2022-11-28T04:51:15.180Z,84.56
2022-11-28T04:52:15.159Z,84.69
2022-11-28T04:53:15.149Z,84.55
2022-11-28T04:54:15.128Z,84.50
2022-11-28T04:55:15.122Z,84.70
2022-11-28T04:56:15.127Z,84.77
2022-11-28T04:57:15.088Z,84.93
2022-11-28T04:58:15.078Z,85.28
2022-11-28T04:59:15.079Z,85.39
2022-11-28T05:00:15.047Z,85.38
2022-11-28T05:01:15.137Z,85.55
2022-11-28T05:02:15.100Z,85.51
2022-11-28T05:03:15.018Z,85.49
2022-11-28T05:04:14.998Z,85.48
2022-11-28T05:05:14.988Z,85.54
2022-11-28T05:06:14.978Z,85.62
2022-11-28T05:07:15.034Z,85.70
2022-11-28T05:08:14.957Z,85.72
2022-11-28T05:09:14.937Z,85.75
2022-11-28T05:10:14.983Z,85.79
2022-11-28T05:11:14.909Z,85.81
2022-11-28T05:12:14.887Z,85.77
2022-11-28T05:13:14.879Z,85.54
2022-11-28T05:14:14.887Z,85.39
2022-11-28T05:15:14.854Z,85.14
2022-11-28T05:16:14.889Z,84.78
2022-11-28T05:17:14.827Z,84.60
2022-11-28T05:18:14.806Z,84.78
2022-11-28T05:19:14.805Z,84.76
2022-11-28T05:20:14.807Z,84.86
2022-11-28T05:21:14.779Z,85.11
2022-11-28T05:22:14.757Z,84.66
2022-11-28T05:23:14.754Z,84.43
2022-11-28T05:24:14.725Z,84.13
2022-11-28T05:25:14.726Z,84.08
2022-11-28T05:26:14.733Z,84.28
2022-11-28T05:27:14.696Z,84.36
2022-11-28T05:28:14.674Z,84.47
2022-11-28T05:29:14.675Z,84.38
2022-11-28T05:30:14.645Z,84.40
2022-11-28T05:31:14.700Z,84.28
2022-11-28T05:32:14.647Z,84.32
2022-11-28T05:33:14.640Z,84.61
2022-11-28T05:34:14.595Z,84.69
2022-11-28T05:35:14.584Z,84.76
2022-11-28T05:36:14.565Z,84.88
2022-11-28T05:37:14.557Z,85.04
2022-11-28T05:38:14.557Z,84.88
2022-11-28T05:39:14.535Z,84.57
2022-11-28T05:40:14.527Z,84.56
2022-11-28T05:41:14.514Z,84.75
2022-11-28T05:42:14.494Z,84.91
2022-11-28T05:43:14.486Z,85.01
2022-11-28T05:44:14.506Z,85.21
2022-11-28T05:45:14.454Z,85.50
2022-11-28T05:46:14.463Z,85.53
2022-11-28T05:47:14.433Z,85.60
2022-11-28T05:48:14.414Z,85.14
2022-11-28T05:49:14.403Z,84.69
2022-11-28T05:50:14.413Z,84.64
2022-11-28T05:51:14.384Z,84.84
2022-11-28T05:52:14.361Z,84.97
2022-11-28T05:53:14.352Z,85.04
2022-11-28T05:54:14.332Z,85.12
2022-11-28T05:55:14.336Z,84.95
2022-11-28T05:56:14.322Z,84.37
2022-11-28T05:57:14.292Z,84.23
2022-11-28T05:58:14.273Z,84.46
2022-11-28T05:59:14.265Z,84.46
2022-11-28T06:00:14.264Z,84.24
2022-11-28T06:01:14.245Z,83.86
2022-11-28T06:02:14.335Z,83.64
2022-11-28T06:03:14.221Z,83.58
2022-11-28T06:04:14.256Z,83.38
2022-11-28T06:05:40.365Z,83.61
2022-11-28T06:06:15.187Z,83.87
2022-11-28T06:07:14.180Z,84.12
2022-11-28T06:08:14.199Z,84.36
2022-11-28T06:09:14.132Z,84.50
2022-11-28T06:10:14.121Z,84.41
2022-11-28T06:11:14.110Z,84.52
2022-11-28T06:12:14.098Z,84.60
2022-11-28T06:13:14.080Z,84.67
2022-11-28T06:14:14.084Z,84.65
2022-11-28T06:15:14.050Z,84.71
2022-11-28T06:16:14.077Z,84.55
2022-11-28T06:17:14.021Z,84.38
2022-11-28T06:18:14.018Z,84.28
2022-11-28T06:19:13.997Z,84.00
2022-11-28T06:20:14.015Z,83.90
2022-11-28T06:21:13.970Z,84.05
2022-11-28T06:22:13.952Z,84.17
2022-11-28T06:23:13.948Z,84.22
2022-11-28T06:24:13.930Z,84.02
2022-11-28T06:25:13.920Z,83.85
2022-11-28T06:26:13.949Z,84.14
2022-11-28T06:27:13.890Z,84.27
2022-11-28T06:28:13.888Z,84.48
2022-11-28T06:29:13.861Z,84.50
2022-11-28T06:30:13.859Z,83.66
2022-11-28T06:31:13.914Z,82.99
2022-11-28T06:32:17.607Z,83.15
2022-11-28T06:33:14.811Z,83.38
2022-11-28T06:34:13.809Z,83.57
2022-11-28T06:35:13.786Z,83.84
2022-11-28T06:36:13.780Z,84.09
2022-11-28T06:37:13.749Z,84.14
2022-11-28T06:38:14.573Z,84.15
2022-11-28T06:39:13.729Z,83.94
2022-11-28T06:40:13.726Z,84.13
2022-11-28T06:41:13.707Z,84.06
2022-11-28T06:42:13.688Z,84.28
2022-11-28T06:43:13.678Z,84.22
2022-11-28T06:44:13.688Z,84.37
2022-11-28T06:45:13.647Z,84.42
2022-11-28T06:46:16.241Z,84.33
2022-11-28T06:47:13.619Z,84.30
2022-11-28T06:48:13.615Z,84.39
2022-11-28T06:49:13.601Z,84.30
2022-11-28T06:50:13.827Z,84.31
2022-11-28T06:51:13.759Z,84.53
2022-11-28T06:52:13.559Z,84.63
2022-11-28T06:53:13.538Z,84.71
2022-11-28T06:54:13.535Z,84.60
2022-11-28T06:55:13.520Z,84.26
2022-11-28T06:56:13.537Z,83.93
2022-11-28T06:57:13.498Z,83.95
2022-11-28T06:58:13.480Z,83.94
2022-11-28T06:59:13.463Z,83.99
2022-11-28T07:00:13.449Z,83.61
2022-11-28T07:01:13.502Z,83.32
2022-11-28T07:02:14.508Z,83.35
2022-11-28T07:03:13.405Z,83.39
2022-11-28T07:04:13.395Z,83.65
2022-11-28T07:05:13.387Z,83.45
2022-11-28T07:06:13.426Z,83.25
2022-11-28T07:07:16.536Z,83.11
2022-11-28T07:08:13.437Z,83.19
2022-11-28T07:09:13.326Z,83.11
2022-11-28T07:10:13.315Z,83.27
2022-11-28T07:11:13.306Z,83.33
2022-11-28T07:12:13.294Z,83.36
2022-11-28T07:13:13.281Z,83.44
2022-11-28T07:14:13.305Z,83.66
2022-11-28T07:15:13.244Z,83.86
2022-11-28T07:16:13.291Z,83.77
2022-11-28T07:17:13.223Z,83.58
2022-11-28T07:18:13.214Z,84.03
2022-11-28T07:19:13.194Z,83.97
2022-11-28T07:20:13.204Z,83.81
2022-11-28T07:21:13.165Z,83.74
2022-11-28T07:22:13.163Z,83.49
2022-11-28T07:23:13.135Z,83.50
2022-11-28T07:24:13.133Z,83.39
2022-11-28T07:25:13.115Z,83.10
2022-11-28T07:26:13.138Z,83.07
2022-11-28T07:27:13.084Z,83.00
2022-11-28T07:28:13.081Z,82.86
2022-11-28T07:29:13.064Z,82.89
2022-11-28T07:30:13.054Z,82.69
2022-11-28T07:31:13.043Z,82.75
2022-11-28T07:32:13.091Z,82.84
2022-11-28T07:33:13.004Z,82.70
2022-11-28T07:34:13.003Z,82.72
2022-11-28T07:35:12.983Z,82.97
2022-11-28T07:36:12.986Z,83.02
2022-11-28T07:37:12.962Z,83.01
2022-11-28T07:38:12.972Z,83.32
2022-11-28T07:39:12.924Z,83.24
2022-11-28T07:40:12.922Z,83.37
2022-11-28T07:41:12.903Z,83.22
2022-11-28T07:42:12.893Z,83.08
2022-11-28T07:43:12.874Z,82.86
2022-11-28T07:44:12.884Z,82.72
2022-11-28T07:45:12.850Z,82.35
2022-11-28T07:46:12.896Z,82.32
2022-11-28T07:47:12.821Z,82.11
2022-11-28T07:48:12.822Z,82.24
2022-11-28T07:49:12.803Z,82.34
2022-11-28T07:50:12.813Z,82.26
2022-11-28T07:51:12.771Z,82.40
2022-11-28T07:52:12.758Z,82.26
2022-11-28T07:53:12.741Z,82.46
2022-11-28T07:54:12.733Z,82.36
2022-11-28T07:55:12.712Z,82.43
2022-11-28T07:56:12.743Z,82.42
2022-11-28T07:57:13.419Z,82.39
2022-11-28T07:58:12.685Z,82.74
2022-11-28T07:59:12.662Z,82.97
2022-11-28T08:00:12.659Z,83.14
2022-11-28T08:01:12.641Z,82.81
2022-11-28T08:02:12.686Z,82.73
2022-11-28T08:03:12.611Z,82.58
2022-11-28T08:04:12.639Z,82.62
2022-11-28T08:05:12.607Z,82.20
2022-11-28T08:06:12.578Z,81.99
2022-11-28T08:07:12.651Z,81.92
2022-11-28T08:08:12.571Z,81.51
2022-11-28T08:09:12.530Z,81.78
2022-11-28T08:10:12.529Z,81.88
2022-11-28T08:11:12.510Z,82.09
2022-11-28T08:12:12.503Z,82.17
2022-11-28T08:13:12.477Z,81.90
2022-11-28T08:14:12.502Z,82.29
2022-11-28T08:15:12.451Z,82.70
2022-11-28T08:16:12.519Z,82.28
2022-11-28T08:17:12.439Z,82.29
2022-11-28T08:18:12.421Z,82.42
2022-11-28T08:19:12.398Z,82.82
2022-11-28T08:20:12.430Z,82.78
2022-11-28T08:21:12.369Z,82.62
2022-11-28T08:22:13.367Z,82.67
2022-11-28T08:23:12.339Z,82.76
2022-11-28T08:24:12.339Z,82.61
2022-11-28T08:25:12.319Z,82.32
2022-11-28T08:26:12.334Z,82.81
2022-11-28T08:27:12.289Z,82.70
2022-11-28T08:28:12.290Z,81.85
2022-11-28T08:29:12.267Z,81.76
2022-11-28T08:30:12.258Z,81.61
2022-11-28T08:31:12.307Z,81.21
2022-11-28T08:32:12.276Z,80.99
2022-11-28T08:33:12.217Z,81.13
2022-11-28T08:34:12.216Z,80.86
2022-11-28T08:35:12.201Z,81.12
2022-11-28T08:36:12.188Z,81.37
2022-11-28T08:37:12.178Z,81.07
2022-11-28T08:38:12.183Z,80.73
2022-11-28T08:39:27.545Z,80.81
2022-11-28T08:40:13.150Z,80.80
2022-11-28T08:41:12.117Z,80.82
2022-11-28T08:42:12.089Z,81.32
2022-11-28T08:43:12.086Z,81.10
2022-11-28T08:44:12.086Z,81.03
2022-11-28T08:45:12.062Z,80.90
2022-11-28T08:46:12.104Z,81.01
2022-11-28T08:47:12.039Z,81.29
2022-11-28T08:48:12.015Z,81.32
2022-11-28T08:49:12.009Z,81.30
2022-11-28T08:50:12.010Z,80.97
2022-11-28T08:51:11.977Z,81.25
2022-11-28T08:52:11.967Z,81.30
2022-11-28T08:53:11.955Z,81.17
2022-11-28T08:54:11.936Z,80.91
2022-11-28T08:55:11.928Z,81.04
2022-11-28T08:56:11.926Z,81.11
2022-11-28T08:57:11.898Z,81.19
2022-11-28T08:58:11.883Z,81.04
2022-11-28T08:59:11.876Z,80.89
2022-11-28T09:00:11.854Z,80.66
2022-11-28T09:01:11.868Z,80.63
2022-11-28T09:02:11.856Z,80.63
2022-11-28T09:03:11.828Z,80.15
2022-11-28T09:04:11.893Z,80.71
2022-11-28T09:05:11.796Z,80.67
2022-11-28T09:06:11.785Z,80.44
2022-11-28T09:07:11.768Z,80.39
2022-11-28T09:08:12.102Z,80.02
2022-11-28T09:09:11.744Z,79.88
2022-11-28T09:10:11.726Z,80.10
2022-11-28T09:11:11.720Z,79.81
2022-11-28T09:12:11.697Z,80.33
2022-11-28T09:13:11.695Z,80.62
2022-11-28T09:14:11.696Z,80.07
2022-11-28T09:15:12.665Z,80.44
2022-11-28T09:16:11.635Z,80.51
2022-11-28T09:17:11.689Z,80.26
2022-11-28T09:18:11.614Z,80.15
2022-11-28T09:19:11.618Z,80.16
2022-11-28T09:20:11.603Z,80.44
2022-11-28T09:21:11.630Z,79.97
2022-11-28T09:22:11.576Z,80.18
2022-11-28T09:23:11.556Z,80.38
2022-11-28T09:24:11.534Z,80.78
2022-11-28T09:25:11.525Z,80.53
2022-11-28T09:26:11.536Z,80.23
2022-11-28T09:27:11.504Z,79.70
2022-11-28T09:28:11.487Z,78.99
2022-11-28T09:29:11.484Z,78.49
2022-11-28T09:30:11.454Z,78.32
2022-11-28T09:31:11.506Z,78.06
2022-11-28T09:32:11.445Z,78.41
2022-11-28T09:33:11.425Z,78.45
2022-11-28T09:34:11.403Z,78.52
2022-11-28T09:35:11.395Z,78.56
2022-11-28T09:36:11.383Z,78.54
2022-11-28T09:37:11.372Z,78.77
2022-11-28T09:38:11.398Z,78.70
2022-11-28T09:39:11.343Z,78.85
2022-11-28T09:40:13.716Z,77.85
2022-11-28T09:41:11.324Z,77.63
2022-11-28T09:42:11.297Z,77.93
2022-11-28T09:43:11.304Z,77.76
2022-11-28T09:44:11.310Z,77.44
2022-11-28T09:45:11.264Z,77.57
2022-11-28T09:46:11.292Z,77.80
2022-11-28T09:47:11.239Z,78.22
2022-11-28T09:48:11.212Z,78.03
2022-11-28T09:49:11.212Z,77.85
2022-11-28T09:50:11.212Z,77.66
2022-11-28T09:51:11.182Z,77.84
2022-11-28T09:52:11.230Z,78.06
2022-11-28T09:53:11.160Z,77.96
2022-11-28T09:54:11.141Z,77.91
2022-11-28T09:55:11.160Z,77.66
2022-11-28T09:56:11.142Z,77.53
2022-11-28T09:57:11.102Z,77.42
2022-11-28T09:58:11.088Z,77.90
2022-11-28T09:59:11.081Z,77.80
2022-11-28T10:00:11.063Z,77.95
2022-11-28T10:01:11.055Z,78.32
2022-11-28T10:02:11.061Z,78.31
2022-11-28T10:03:11.084Z,78.19
2022-11-28T10:04:11.090Z,77.44
2022-11-28T10:05:11.067Z,76.87
2022-11-28T10:06:10.983Z,76.97
2022-11-28T10:07:10.976Z,77.17
2022-11-28T10:08:11.027Z,77.69
2022-11-28T10:09:10.941Z,77.92
2022-11-28T10:10:10.931Z,78.31
2022-11-28T10:11:10.921Z,78.17
2022-11-28T10:12:10.902Z,78.10
2022-11-28T10:13:10.893Z,78.00
2022-11-28T10:14:10.892Z,77.98
2022-11-28T10:15:10.868Z,77.46
2022-11-28T10:16:10.850Z,77.76
2022-11-28T10:17:10.884Z,77.85
2022-11-28T10:18:10.824Z,77.91
2022-11-28T10:19:20.600Z,77.43
2022-11-28T10:20:11.810Z,77.46
2022-11-28T10:21:10.783Z,77.76
2022-11-28T10:22:10.761Z,77.35
2022-11-28T10:23:10.760Z,77.12
2022-11-28T10:24:10.742Z,77.65
2022-11-28T10:25:10.733Z,77.68
2022-11-28T10:26:10.732Z,77.96
2022-11-28T10:27:10.801Z,78.17
2022-11-28T10:28:10.680Z,78.49
2022-11-28T10:29:10.671Z,78.68
2022-11-28T10:30:10.661Z,78.32
2022-11-28T10:31:10.710Z,78.56
2022-11-28T10:32:10.649Z,78.21
2022-11-28T10:33:10.630Z,78.28
2022-11-28T10:34:10.600Z,78.40
2022-11-28T10:35:10.601Z,78.05
2022-11-28T10:36:10.578Z,77.68
2022-11-28T10:37:10.570Z,77.94
2022-11-28T10:38:10.580Z,77.85
2022-11-28T10:39:11.373Z,77.97
2022-11-28T10:40:10.563Z,77.71
2022-11-28T10:41:10.517Z,77.25
2022-11-28T10:42:10.514Z,77.54
2022-11-28T10:43:10.490Z,77.07
2022-11-28T10:44:10.511Z,77.65
2022-11-28T10:45:10.459Z,77.14
2022-11-28T10:46:10.484Z,77.14
2022-11-28T10:47:10.439Z,77.42
2022-11-28T10:48:38.008Z,77.49
2022-11-28T10:49:11.429Z,77.16
2022-11-28T10:50:10.389Z,77.03
2022-11-28T10:51:10.396Z,77.13
2022-11-28T10:52:10.358Z,76.98
2022-11-28T10:53:10.364Z,77.27
2022-11-28T10:54:10.338Z,77.44
2022-11-28T10:55:10.360Z,77.22
2022-11-28T10:56:11.783Z,77.20
2022-11-28T10:57:10.298Z,77.07
2022-11-28T10:58:10.285Z,77.33
2022-11-28T10:59:10.278Z,77.14
2022-11-28T11:00:10.257Z,76.72
2022-11-28T11:01:10.322Z,76.67
2022-11-28T11:02:10.228Z,77.03
2022-11-28T11:03:10.218Z,77.32
2022-11-28T11:04:10.228Z,77.18
2022-11-28T11:05:10.214Z,76.61
2022-11-28T11:06:10.177Z,76.67
2022-11-28T11:07:16.227Z,76.96
2022-11-28T11:08:11.190Z,76.92
2022-11-28T11:09:10.149Z,76.63
2022-11-28T11:10:10.119Z,77.00
2022-11-28T11:11:10.117Z,77.17
2022-11-28T11:12:10.097Z,77.15
2022-11-28T11:13:10.119Z,76.69
2022-11-28T11:14:10.066Z,76.78
2022-11-28T11:15:10.057Z,76.93
2022-11-28T11:16:10.115Z,76.97
2022-11-28T11:17:10.035Z,76.78
2022-11-28T11:18:10.024Z,76.81
2022-11-28T11:19:10.038Z,76.96
2022-11-28T11:20:09.985Z,77.30
2022-11-28T11:21:09.985Z,76.95
2022-11-28T11:22:09.964Z,76.30
2022-11-28T11:23:09.958Z,75.88
2022-11-28T11:24:09.939Z,75.74
2022-11-28T11:25:09.967Z,75.50
2022-11-28T11:26:09.917Z,75.92
2022-11-28T11:27:09.907Z,76.10
2022-11-28T11:28:09.884Z,75.79
2022-11-28T11:29:09.877Z,76.04
2022-11-28T11:30:09.886Z,76.14
2022-11-28T11:31:10.056Z,75.78
2022-11-28T11:32:09.828Z,75.90
2022-11-28T11:33:09.816Z,76.08
2022-11-28T11:34:09.806Z,76.09
2022-11-28T11:35:09.795Z,76.23
2022-11-28T11:36:09.776Z,76.32
2022-11-28T11:37:09.795Z,75.60
2022-11-28T11:38:09.746Z,75.60
2022-11-28T11:39:09.746Z,75.54
2022-11-28T11:40:09.727Z,75.47
2022-11-28T11:41:09.716Z,75.11
2022-11-28T11:42:09.695Z,75.43
2022-11-28T11:43:09.706Z,75.80
2022-11-28T11:44:09.665Z,75.38
2022-11-28T11:45:09.657Z,75.71
2022-11-28T11:46:09.765Z,75.28
2022-11-28T11:47:09.644Z,74.99
2022-11-28T11:48:09.614Z,74.80
2022-11-28T11:49:09.624Z,75.18
2022-11-28T11:50:09.599Z,75.10
2022-11-28T11:51:09.583Z,75.40
2022-11-28T11:52:09.565Z,75.29
2022-11-28T11:53:09.554Z,75.18
2022-11-28T11:54:09.534Z,75.21
2022-11-28T11:55:09.557Z,75.22
2022-11-28T11:56:09.505Z,75.65
2022-11-28T11:57:31.910Z,76.16
2022-11-28T11:58:10.494Z,76.19
2022-11-28T11:59:09.506Z,76.37
2022-11-28T12:00:09.524Z,76.43
2022-11-28T12:01:09.454Z,76.30
2022-11-28T12:02:10.477Z,76.32
2022-11-28T12:03:09.506Z,76.00
2022-11-28T12:04:30.614Z,75.54
2022-11-28T12:05:10.394Z,75.68
2022-11-28T12:06:16.587Z,75.70
2022-11-28T12:07:10.394Z,75.93
2022-11-28T12:08:09.352Z,75.99
2022-11-28T12:09:09.334Z,75.95
2022-11-28T12:10:09.323Z,75.99
2022-11-28T12:11:09.304Z,76.07
2022-11-28T12:12:09.305Z,75.94
2022-11-28T12:13:09.322Z,75.86
2022-11-28T12:14:09.273Z,75.76
2022-11-28T12:15:09.253Z,76.13
2022-11-28T12:16:09.310Z,75.71
2022-11-28T12:17:32.594Z,75.75
2022-11-28T12:18:10.244Z,76.10
2022-11-28T12:19:09.203Z,76.55
2022-11-28T12:20:09.194Z,76.40
2022-11-28T12:21:09.174Z,76.38
2022-11-28T12:22:09.162Z,76.57
2022-11-28T12:23:13.002Z,76.54
2022-11-28T12:24:10.162Z,76.46
2022-11-28T12:25:09.123Z,76.59
2022-11-28T12:26:09.115Z,76.57
2022-11-28T12:27:09.101Z,76.65
2022-11-28T12:28:09.083Z,76.28
2022-11-28T12:29:09.531Z,75.89
2022-11-28T12:30:09.074Z,75.88
2022-11-28T12:31:09.112Z,75.68
2022-11-28T12:32:09.023Z,75.41
2022-11-28T12:33:09.025Z,75.61
2022-11-28T12:34:09.002Z,75.75
2022-11-28T12:35:09.007Z,75.98
2022-11-28T12:36:08.990Z,75.91
2022-11-28T12:37:08.961Z,76.32
2022-11-28T12:38:11.330Z,75.71
2022-11-28T12:39:08.934Z,74.80
2022-11-28T12:40:08.929Z,74.82
2022-11-28T12:41:08.912Z,75.15
2022-11-28T12:42:08.933Z,74.97
2022-11-28T12:43:08.882Z,75.00
2022-11-28T12:44:08.870Z,75.11
2022-11-28T12:45:08.862Z,75.36
2022-11-28T12:46:08.875Z,75.48
2022-11-28T12:47:08.839Z,75.43
2022-11-28T12:48:08.849Z,75.16
2022-11-28T12:49:08.812Z,75.71
2022-11-28T12:50:08.793Z,76.00
2022-11-28T12:51:08.781Z,75.79
2022-11-28T12:52:08.762Z,75.70